createdAt,value
2022-09-06T00:01:08.210Z,17.57
2022-09-06T00:03:34.610Z,17.61
2022-09-06T00:06:09.539Z,17.66
2022-09-06T00:08:36.301Z,17.50
2022-09-06T00:11:03.692Z,17.50
2022-09-06T00:13:30.080Z,17.50
2022-09-06T00:15:56.564Z,17.49
2022-09-06T00:18:23.080Z,17.50
2022-09-06T00:20:49.520Z,17.57
2022-09-06T00:23:15.893Z,17.63
2022-09-06T00:25:42.265Z,17.65
2022-09-06T00:28:08.665Z,17.62
2022-09-06T00:30:35.085Z,17.57
2022-09-06T00:33:01.502Z,17.61
2022-09-06T00:35:28.500Z,17.64
2022-09-06T00:37:59.932Z,17.51
2022-09-06T00:40:29.354Z,17.54
2022-09-06T00:42:57.396Z,17.43
2022-09-06T00:45:27.086Z,17.46
2022-09-06T00:47:53.760Z,17.41
2022-09-06T00:50:20.318Z,17.38
2022-09-06T00:52:51.502Z,17.37
2022-09-06T00:55:18.644Z,17.38
2022-09-06T00:57:46.468Z,17.39
2022-09-06T01:00:13.463Z,17.45
2022-09-06T01:02:39.984Z,17.51
2022-09-06T01:05:06.808Z,17.48
2022-09-06T01:07:42.090Z,17.50
2022-09-06T01:10:33.499Z,17.41
2022-09-06T01:13:04.415Z,17.49
2022-09-06T01:15:47.291Z,17.54
2022-09-06T01:18:38.627Z,17.33
2022-09-06T01:21:20.307Z,17.48
2022-09-06T01:24:19.316Z,17.69
2022-09-06T01:27:04.576Z,17.77
2022-09-06T01:29:44.935Z,17.91
2022-09-06T01:32:23.842Z,17.96
2022-09-06T01:35:06.774Z,17.94
2022-09-06T01:37:33.618Z,18.02
2022-09-06T01:40:00.121Z,17.96
2022-09-06T01:42:30.014Z,17.98
2022-09-06T01:45:01.493Z,17.99
2022-09-06T01:48:16.225Z,17.98
2022-09-06T01:50:53.987Z,17.95
2022-09-06T01:53:52.237Z,18.08
2022-09-06T01:56:47.277Z,18.31
2022-09-06T01:59:35.220Z,18.50
2022-09-06T02:02:13.916Z,18.63
2022-09-06T02:04:50.813Z,18.74
2022-09-06T02:07:24.580Z,18.81
2022-09-06T02:10:00.343Z,18.87
2022-09-06T02:12:30.131Z,18.94
2022-09-06T02:15:02.268Z,18.98
2022-09-06T02:17:37.178Z,19.03
2022-09-06T02:20:09.684Z,19.08
2022-09-06T02:22:46.956Z,19.12
2022-09-06T02:25:21.772Z,19.14
2022-09-06T02:27:48.228Z,19.18
2022-09-06T02:30:14.670Z,19.22
2022-09-06T02:32:48.216Z,19.25
2022-09-06T02:35:16.500Z,19.33
2022-09-06T02:37:43.554Z,19.33
2022-09-06T02:40:11.000Z,19.34
2022-09-06T02:42:38.044Z,19.36
2022-09-06T02:45:05.216Z,19.37
2022-09-06T02:47:31.592Z,19.37
2022-09-06T02:49:58.064Z,19.38
2022-09-06T02:52:24.588Z,19.36
2022-09-06T02:54:51.661Z,19.36
2022-09-06T02:57:18.051Z,19.36
2022-09-06T02:59:44.463Z,19.33
2022-09-06T03:02:10.878Z,19.30
2022-09-06T03:04:37.280Z,19.27
2022-09-06T03:07:03.727Z,19.21
2022-09-06T03:09:30.113Z,19.17
2022-09-06T03:11:56.495Z,19.12
2022-09-06T03:14:22.862Z,19.09
2022-09-06T03:16:49.291Z,19.03
2022-09-06T03:19:15.754Z,18.99
2022-09-06T03:21:42.142Z,18.94
2022-09-06T03:24:08.499Z,18.92
2022-09-06T03:26:34.881Z,18.86
2022-09-06T03:29:01.246Z,18.90
2022-09-06T03:31:27.676Z,18.94
2022-09-06T03:33:54.153Z,18.81
2022-09-06T03:36:20.538Z,18.76
2022-09-06T03:38:46.990Z,18.70
2022-09-06T03:41:13.394Z,18.69
2022-09-06T03:43:40.115Z,18.67
2022-09-06T03:46:06.589Z,18.67
2022-09-06T03:48:33.113Z,18.67
2022-09-06T03:50:59.778Z,18.61
2022-09-06T03:53:28.623Z,18.58
2022-09-06T03:55:57.530Z,18.58
2022-09-06T03:58:25.312Z,18.55
2022-09-06T04:01:04.867Z,18.52
2022-09-06T04:03:31.511Z,18.41
2022-09-06T04:05:57.993Z,18.34
2022-09-06T04:08:24.480Z,18.31
2022-09-06T04:10:53.608Z,18.33
2022-09-06T04:13:20.085Z,18.25
2022-09-06T04:15:47.720Z,18.24
2022-09-06T04:18:14.782Z,18.24
2022-09-06T04:20:42.039Z,18.27
2022-09-06T04:23:08.760Z,18.20
2022-09-06T04:25:35.176Z,18.16
2022-09-06T04:28:01.839Z,18.07
2022-09-06T04:30:28.317Z,18.01
2022-09-06T04:32:54.679Z,18.00
2022-09-06T04:35:21.082Z,18.01
2022-09-06T04:37:47.479Z,17.94
2022-09-06T04:40:13.973Z,17.91
2022-09-06T04:42:40.415Z,17.91
2022-09-06T04:45:07.328Z,17.87
2022-09-06T04:47:33.769Z,17.84
2022-09-06T04:50:00.175Z,17.80
2022-09-06T04:52:30.116Z,17.77
2022-09-06T04:54:57.081Z,17.69
2022-09-06T04:57:23.456Z,17.66
2022-09-06T04:59:49.825Z,17.58
2022-09-06T05:02:16.341Z,17.53
2022-09-06T05:04:42.744Z,17.28
2022-09-06T05:07:09.346Z,17.39
2022-09-06T05:09:36.712Z,17.38
2022-09-06T05:12:03.572Z,17.44
2022-09-06T05:14:30.018Z,17.45
2022-09-06T05:16:56.646Z,17.51
2022-09-06T05:19:23.161Z,17.43
2022-09-06T05:21:51.457Z,17.38
2022-09-06T05:24:17.900Z,17.40
2022-09-06T05:26:44.398Z,17.32
2022-09-06T05:29:10.904Z,17.30
2022-09-06T05:31:37.356Z,17.25
2022-09-06T05:34:03.848Z,17.29
2022-09-06T05:36:30.779Z,17.27
2022-09-06T05:38:58.628Z,17.10
2022-09-06T05:41:25.541Z,17.12
2022-09-06T05:43:51.986Z,17.09
2022-09-06T05:46:18.612Z,17.10
2022-09-06T05:48:51.946Z,17.21
2022-09-06T05:51:18.324Z,17.13
2022-09-06T05:53:46.015Z,17.31
2022-09-06T05:56:14.250Z,17.38
2022-09-06T05:58:40.853Z,17.44
2022-09-06T06:01:18.657Z,17.52
2022-09-06T06:04:00.244Z,17.60
2022-09-06T06:06:28.663Z,17.59
2022-09-06T06:08:56.218Z,17.56
2022-09-06T06:11:23.415Z,17.68
2022-09-06T06:13:50.570Z,17.75
2022-09-06T06:16:18.428Z,17.85
2022-09-06T06:18:48.749Z,17.96
2022-09-06T06:21:43.625Z,18.05
2022-09-06T06:24:10.078Z,18.12
2022-09-06T06:26:36.947Z,18.21
2022-09-06T06:29:05.627Z,18.28
2022-09-06T06:31:33.187Z,18.35
2022-09-06T06:34:02.720Z,18.41
2022-09-06T06:36:33.793Z,18.47
2022-09-06T06:39:01.116Z,18.56
2022-09-06T06:41:29.882Z,18.62
2022-09-06T06:43:58.510Z,18.69
2022-09-06T06:46:27.678Z,18.77
2022-09-06T06:48:55.438Z,18.85
2022-09-06T06:51:24.576Z,18.92
2022-09-06T06:53:51.551Z,18.97
2022-09-06T06:56:21.338Z,19.06
2022-09-06T06:58:49.514Z,19.11
2022-09-06T07:01:16.956Z,19.17
2022-09-06T07:03:43.740Z,19.24
2022-09-06T07:08:42.576Z,19.37
2022-09-06T07:11:14.238Z,19.43
2022-09-06T07:13:40.848Z,19.45
2022-09-06T07:16:13.598Z,19.54
2022-09-06T07:18:43.028Z,19.62
2022-09-06T07:26:31.140Z,19.81
2022-09-06T07:29:00.563Z,19.87
2022-09-06T07:34:14.929Z,20.04
2022-09-06T07:36:41.315Z,20.13
2022-09-06T07:39:07.720Z,20.20
2022-09-06T07:41:34.103Z,20.29
2022-09-06T07:44:00.553Z,20.38
2022-09-06T07:46:26.948Z,20.47
2022-09-06T07:48:53.396Z,20.55
2022-09-06T07:51:21.325Z,20.62
2022-09-06T07:53:57.911Z,20.65
2022-09-06T07:56:33.780Z,20.74
2022-09-06T07:59:00.160Z,20.80
2022-09-06T08:01:36.625Z,20.93
2022-09-06T08:04:08.589Z,21.07
2022-09-06T08:09:25.060Z,21.29
2022-09-06T08:11:52.608Z,21.40
2022-09-06T08:14:19.773Z,21.57
2022-09-06T08:16:46.396Z,21.65
2022-09-06T08:19:14.298Z,21.73
2022-09-06T08:21:40.670Z,21.78
2022-09-06T08:24:12.194Z,21.82
2022-09-06T08:26:43.035Z,21.96
2022-09-06T08:29:10.872Z,21.99
2022-09-06T08:31:40.054Z,22.09
2022-09-06T08:34:06.566Z,22.14
2022-09-06T08:36:33.995Z,22.15
2022-09-06T08:39:02.321Z,22.21
2022-09-06T08:41:51.869Z,22.27
2022-09-06T08:47:14.956Z,22.45
2022-09-06T08:49:46.657Z,22.55
2022-09-06T08:52:31.368Z,22.79
2022-09-06T08:55:09.900Z,22.93
2022-09-06T08:57:55.489Z,23.05
2022-09-06T09:00:23.094Z,23.11
2022-09-06T09:03:00.030Z,23.20
2022-09-06T09:05:37.293Z,23.30
2022-09-06T09:08:31.524Z,23.34
2022-09-06T09:11:02.367Z,23.44
2022-09-06T09:13:36.050Z,23.60
2022-09-06T09:16:02.673Z,23.69
2022-09-06T09:18:33.479Z,23.77
2022-09-06T09:21:00.268Z,23.83
2022-09-06T09:23:29.099Z,23.96
2022-09-06T09:26:00.043Z,24.13
2022-09-06T09:28:26.803Z,24.16
2022-09-06T09:30:55.630Z,24.28
2022-09-06T09:33:22.225Z,24.37
2022-09-06T09:35:49.072Z,24.51
2022-09-06T09:38:24.110Z,24.62
2022-09-06T09:40:55.289Z,24.70
2022-09-06T09:43:21.716Z,24.82
2022-09-06T09:46:15.571Z,24.94
2022-09-06T09:49:03.583Z,25.05
2022-09-06T09:51:32.077Z,25.16
2022-09-06T09:54:00.875Z,25.32
2022-09-06T09:56:29.596Z,25.44
2022-09-06T09:58:58.072Z,25.57
2022-09-06T10:01:31.632Z,25.70
2022-09-06T10:09:37.321Z,26.00
2022-09-06T10:12:03.934Z,26.12
2022-09-06T10:14:33.749Z,26.23
2022-09-06T10:17:00.667Z,26.30
2022-09-06T10:19:38.444Z,26.39
2022-09-06T10:22:27.524Z,26.51
2022-09-06T10:25:26.260Z,26.62
2022-09-06T10:28:27.454Z,26.67
2022-09-06T10:31:27.884Z,26.81
2022-09-06T10:34:20.467Z,26.92
2022-09-06T10:37:13.228Z,27.03
2022-09-06T10:39:54.105Z,27.09
2022-09-06T10:42:40.438Z,27.14
2022-09-06T10:45:34.906Z,27.17
2022-09-06T10:48:15.565Z,27.25
2022-09-06T10:50:58.570Z,27.28
2022-09-06T10:53:33.568Z,27.39
2022-09-06T10:56:07.344Z,27.47
2022-09-06T11:01:40.297Z,27.63
2022-09-06T11:04:13.155Z,27.67
2022-09-06T11:06:47.988Z,27.71
2022-09-06T11:09:33.869Z,27.76
2022-09-06T11:12:13.663Z,27.79
2022-09-06T11:14:41.160Z,27.91
2022-09-06T11:17:13.838Z,27.95
2022-09-06T11:20:09.112Z,27.97
2022-09-06T11:22:39.970Z,28.03
2022-09-06T11:25:22.468Z,28.03
2022-09-06T11:27:58.150Z,28.10
2022-09-06T11:30:26.212Z,28.08
2022-09-06T11:33:13.019Z,28.19
2022-09-06T11:35:41.142Z,28.32
2022-09-06T11:38:21.419Z,28.48
2022-09-06T11:40:53.950Z,28.49
2022-09-06T11:43:52.265Z,28.49
2022-09-06T11:46:33.923Z,28.53
2022-09-06T11:49:27.223Z,28.49
2022-09-06T11:51:53.839Z,28.56
2022-09-06T11:54:23.007Z,28.59
2022-09-06T11:57:09.038Z,28.66
2022-09-06T12:00:15.200Z,28.70
2022-09-06T12:02:42.791Z,28.70
2022-09-06T12:05:13.263Z,28.78
2022-09-06T12:08:18.448Z,28.82
2022-09-06T12:10:50.572Z,28.87
2022-09-06T12:13:44.890Z,28.97
2022-09-06T12:16:12.299Z,29.00
2022-09-06T12:18:47.875Z,29.04
2022-09-06T12:21:41.220Z,28.93
2022-09-06T12:24:29.188Z,28.95
2022-09-06T12:27:19.255Z,29.11
2022-09-06T12:29:59.222Z,29.10
2022-09-06T12:32:33.627Z,29.07
2022-09-06T12:38:04.539Z,29.08
2022-09-06T12:40:35.196Z,29.05
2022-09-06T12:43:03.212Z,29.06
2022-09-06T12:45:29.855Z,29.10
2022-09-06T12:48:08.880Z,29.15
2022-09-06T12:50:36.295Z,29.12
2022-09-06T12:53:17.257Z,29.15
2022-09-06T12:55:45.112Z,29.10
2022-09-06T12:58:12.412Z,29.30
2022-09-06T13:00:43.837Z,29.20
2022-09-06T13:03:10.168Z,29.13
2022-09-06T13:05:42.536Z,29.12
2022-09-06T13:08:30.790Z,29.12
2022-09-06T13:10:57.576Z,28.98
2022-09-06T13:13:26.551Z,29.01
2022-09-06T13:15:53.981Z,28.84
2022-09-06T13:18:30.493Z,28.64
2022-09-06T13:21:06.542Z,28.77
2022-09-06T13:23:47.603Z,28.80
2022-09-06T13:26:14.668Z,28.89
2022-09-06T13:28:41.263Z,28.84
2022-09-06T13:31:14.196Z,28.75
2022-09-06T13:33:41.815Z,28.48
2022-09-06T13:36:10.921Z,28.37
2022-09-06T13:38:37.256Z,28.50
2022-09-06T13:41:11.653Z,28.26
2022-09-06T13:43:45.092Z,28.15
2022-09-06T13:46:11.829Z,27.97
2022-09-06T13:48:39.470Z,27.73
2022-09-06T13:51:07.703Z,27.56
2022-09-06T13:53:34.619Z,27.37
2022-09-06T13:56:01.228Z,27.18
2022-09-06T13:58:27.823Z,27.10
2022-09-06T14:00:54.347Z,26.99
2022-09-06T14:03:25.704Z,26.96
2022-09-06T14:05:52.197Z,26.87
2022-09-06T14:08:18.784Z,26.81
2022-09-06T14:10:47.819Z,26.78
2022-09-06T14:13:16.128Z,26.74
2022-09-06T14:15:42.810Z,26.72
2022-09-06T14:18:13.805Z,26.68
2022-09-06T14:20:40.842Z,26.70
2022-09-06T14:23:07.920Z,26.71
2022-09-06T14:25:35.815Z,26.67
2022-09-06T14:28:03.892Z,26.57
2022-09-06T14:30:30.977Z,26.53
2022-09-06T14:32:57.490Z,26.39
2022-09-06T14:35:24.098Z,26.26
2022-09-06T14:37:50.832Z,26.13
2022-09-06T14:40:17.355Z,26.00
2022-09-06T14:42:46.568Z,25.99
2022-09-06T14:45:15.102Z,25.83
2022-09-06T14:47:41.575Z,25.80
2022-09-06T14:50:08.432Z,25.66
2022-09-06T14:52:34.906Z,25.43
2022-09-06T14:55:01.400Z,25.40
2022-09-06T14:57:29.232Z,25.40
2022-09-06T14:59:56.161Z,25.17
2022-09-06T15:02:22.703Z,24.95
2022-09-06T15:04:49.197Z,24.91
2022-09-06T15:07:15.612Z,24.79
2022-09-06T15:09:42.524Z,24.84
2022-09-06T15:12:08.918Z,24.73
2022-09-06T15:14:37.298Z,24.60
2022-09-06T15:17:08.626Z,24.44
2022-09-06T15:19:36.868Z,24.43
2022-09-06T15:22:04.967Z,24.35
2022-09-06T15:24:32.772Z,24.27
2022-09-06T15:26:59.944Z,24.20
2022-09-06T15:29:29.514Z,24.24
2022-09-06T15:31:56.204Z,24.24
2022-09-06T15:34:25.127Z,24.17
2022-09-06T15:36:53.215Z,24.10
2022-09-06T15:39:20.097Z,24.05
2022-09-06T15:41:46.532Z,23.97
2022-09-06T15:44:15.478Z,24.05
2022-09-06T15:46:49.911Z,24.03
2022-09-06T15:49:27.476Z,24.03
2022-09-06T15:51:56.455Z,23.87
2022-09-06T15:54:41.624Z,23.88
2022-09-06T15:57:09.287Z,23.85
2022-09-06T15:59:35.846Z,23.77
2022-09-06T16:02:02.279Z,23.56
2022-09-06T16:04:28.691Z,23.43
2022-09-06T16:06:56.650Z,23.49
2022-09-06T16:09:23.196Z,23.48
2022-09-06T16:11:50.637Z,23.52
2022-09-06T16:14:17.957Z,23.52
2022-09-06T16:16:44.638Z,23.44
2022-09-06T16:19:12.930Z,23.39
2022-09-06T16:21:41.605Z,23.38
2022-09-06T16:24:10.525Z,23.30
2022-09-06T16:26:39.712Z,23.05
2022-09-06T16:29:07.898Z,22.89
2022-09-06T16:31:39.739Z,22.68
2022-09-06T16:34:07.687Z,22.55
2022-09-06T16:36:34.404Z,22.46
2022-09-06T16:39:00.884Z,22.21
2022-09-06T16:41:32.906Z,22.17
2022-09-06T16:43:59.323Z,21.96
2022-09-06T16:46:28.670Z,22.07
2022-09-06T16:49:01.423Z,22.11
2022-09-06T16:51:29.524Z,22.23
2022-09-06T16:53:56.473Z,22.10
2022-09-06T16:56:25.307Z,21.93
2022-09-06T16:58:54.065Z,22.02
2022-09-06T17:01:21.659Z,22.08
2022-09-06T17:03:48.402Z,22.08
2022-09-06T17:06:14.945Z,22.00
2022-09-06T17:08:41.769Z,21.82
2022-09-06T17:11:14.642Z,21.86
2022-09-06T17:13:42.502Z,21.93
2022-09-06T17:16:27.679Z,22.01
2022-09-06T17:18:54.161Z,22.11
2022-09-06T17:21:22.258Z,22.18
2022-09-06T17:23:49.914Z,22.16
2022-09-06T17:26:19.522Z,22.09
2022-09-06T17:28:46.099Z,22.14
2022-09-06T17:31:13.105Z,22.19
2022-09-06T17:33:39.761Z,22.07
2022-09-06T17:36:11.579Z,22.03
2022-09-06T17:38:39.267Z,22.00
2022-09-06T17:41:06.384Z,21.99
2022-09-06T17:43:36.183Z,21.93
2022-09-06T17:46:04.283Z,22.00
2022-09-06T17:48:30.862Z,21.92
2022-09-06T17:51:04.967Z,21.87
2022-09-06T17:53:31.839Z,21.84
2022-09-06T17:55:58.292Z,21.79
2022-09-06T17:58:24.840Z,21.79
2022-09-06T18:00:51.299Z,21.85
2022-09-06T18:03:17.734Z,21.82
2022-09-06T18:05:45.155Z,21.83
2022-09-06T18:08:11.737Z,21.81
2022-09-06T18:10:38.755Z,21.79
2022-09-06T18:13:06.062Z,21.66
2022-09-06T18:15:38.172Z,21.68
2022-09-06T18:18:04.673Z,21.70
2022-09-06T18:20:31.108Z,21.71
2022-09-06T18:22:57.999Z,21.70
2022-09-06T18:25:24.566Z,21.68
2022-09-06T18:27:51.119Z,21.72
2022-09-06T18:30:17.824Z,21.76
2022-09-06T18:32:44.653Z,21.69
2022-09-06T18:35:11.134Z,21.66
2022-09-06T18:37:38.610Z,21.61
2022-09-06T18:40:06.265Z,21.47
2022-09-06T18:42:33.519Z,21.50
2022-09-06T18:44:59.907Z,21.57
2022-09-06T18:47:26.284Z,21.61
2022-09-06T18:49:52.657Z,21.59
2022-09-06T18:52:20.600Z,21.45
2022-09-06T18:54:48.121Z,21.32
2022-09-06T18:57:15.736Z,21.17
2022-09-06T18:59:42.147Z,21.13
2022-09-06T19:02:08.628Z,21.08
2022-09-06T19:04:35.130Z,21.03
2022-09-06T19:07:02.807Z,20.96
2022-09-06T19:09:29.265Z,20.88
2022-09-06T19:11:55.691Z,20.67
2022-09-06T19:14:22.161Z,20.62
2022-09-06T19:16:50.031Z,20.59
2022-09-06T19:19:16.729Z,20.33
2022-09-06T19:21:43.100Z,20.35
2022-09-06T19:24:12.060Z,20.29
2022-09-06T19:26:41.452Z,20.35
2022-09-06T19:29:12.734Z,20.29
2022-09-06T19:31:39.492Z,20.12
2022-09-06T19:34:07.319Z,20.08
2022-09-06T19:36:33.852Z,20.06
2022-09-06T19:39:09.547Z,19.96
2022-09-06T19:41:38.540Z,19.92
2022-09-06T19:44:08.272Z,19.94
2022-09-06T19:46:35.114Z,19.96
2022-09-06T19:49:02.137Z,19.91
2022-09-06T19:51:28.595Z,19.85
2022-09-06T19:54:00.236Z,19.76
2022-09-06T19:56:33.559Z,19.98
2022-09-06T19:59:02.524Z,20.05
2022-09-06T20:01:31.103Z,19.78
2022-09-06T20:03:58.720Z,19.92
2022-09-06T20:06:25.999Z,19.94
2022-09-06T20:08:53.964Z,20.04
2022-09-06T20:11:21.868Z,20.01
2022-09-06T20:13:48.923Z,19.97
2022-09-06T20:16:16.010Z,19.96
2022-09-06T20:18:42.751Z,19.93
2022-09-06T20:21:09.893Z,19.91
2022-09-06T20:23:36.666Z,19.87
2022-09-06T20:26:07.854Z,19.82
2022-09-06T20:28:35.077Z,19.82
2022-09-06T20:31:03.998Z,19.71
2022-09-06T20:33:31.104Z,19.73
2022-09-06T20:35:59.362Z,19.77
2022-09-06T20:38:26.368Z,19.63
2022-09-06T20:41:11.716Z,19.52
2022-09-06T20:43:39.405Z,19.47
2022-09-06T20:46:10.211Z,19.39
2022-09-06T20:48:44.386Z,19.41
2022-09-06T20:51:13.787Z,19.40
2022-09-06T20:53:40.664Z,19.39
2022-09-06T20:56:13.297Z,19.35
2022-09-06T20:58:40.812Z,19.36
2022-09-06T21:01:09.573Z,19.37
2022-09-06T21:03:39.090Z,19.34
2022-09-06T21:06:10.882Z,19.34
2022-09-06T21:08:42.365Z,19.30
2022-09-06T21:11:10.067Z,19.40
2022-09-06T21:13:36.971Z,19.37
2022-09-06T21:16:04.723Z,19.40
2022-09-06T21:18:31.985Z,19.20
2022-09-06T21:21:01.002Z,19.25
2022-09-06T21:23:29.070Z,19.16
2022-09-06T21:26:01.748Z,19.16
2022-09-06T21:28:30.474Z,19.05
2022-09-06T21:31:04.699Z,19.15
2022-09-06T21:33:33.004Z,19.18
2022-09-06T21:36:07.339Z,19.18
2022-09-06T21:38:35.325Z,19.10
2022-09-06T21:41:03.216Z,19.09
2022-09-06T21:43:30.073Z,19.01
2022-09-06T21:45:58.067Z,18.96
2022-09-06T21:48:24.621Z,19.01
2022-09-06T21:50:51.494Z,18.76
2022-09-06T21:53:18.020Z,18.80
2022-09-06T21:55:45.048Z,18.73
2022-09-06T21:58:13.096Z,18.82
2022-09-06T22:00:41.203Z,18.76
2022-09-06T22:03:08.187Z,18.82
2022-09-06T22:05:34.944Z,18.84
2022-09-06T22:08:01.996Z,18.86
2022-09-06T22:10:28.444Z,18.83
2022-09-06T22:12:54.844Z,18.83
2022-09-06T22:15:22.092Z,18.80
2022-09-06T22:17:48.980Z,18.74
2022-09-06T22:20:15.445Z,18.71
2022-09-06T22:22:43.940Z,18.69
2022-09-06T22:25:10.324Z,18.79
2022-09-06T22:27:37.187Z,18.68
2022-09-06T22:30:04.508Z,18.43
2022-09-06T22:32:30.880Z,18.33
2022-09-06T22:34:57.295Z,18.34
2022-09-06T22:37:23.860Z,18.47
2022-09-06T22:39:50.664Z,18.55
2022-09-06T22:42:17.070Z,18.61
2022-09-06T22:44:43.459Z,18.53
2022-09-06T22:47:09.871Z,18.54
2022-09-06T22:49:36.243Z,18.38
2022-09-06T22:52:03.108Z,18.49
2022-09-06T22:54:29.484Z,18.45
2022-09-06T22:56:55.866Z,18.45
2022-09-06T22:59:22.368Z,18.38
2022-09-06T23:01:48.748Z,18.34
2022-09-06T23:04:15.168Z,18.33
2022-09-06T23:06:41.597Z,18.21
2022-09-06T23:09:08.036Z,18.26
2022-09-06T23:11:34.431Z,18.26
2022-09-06T23:14:00.965Z,18.24
2022-09-06T23:16:28.369Z,18.21
2022-09-06T23:18:55.348Z,18.23
2022-09-06T23:21:24.222Z,18.18
2022-09-06T23:23:52.361Z,18.13
2022-09-06T23:26:21.579Z,18.08
2022-09-06T23:28:51.602Z,17.59
2022-09-06T23:31:18.114Z,17.85
2022-09-06T23:33:44.518Z,17.96
2022-09-06T23:36:14.509Z,18.03
2022-09-06T23:38:42.025Z,18.11
2022-09-06T23:41:09.822Z,18.00
2022-09-06T23:43:36.808Z,18.02
2022-09-06T23:46:03.509Z,17.90
2022-09-06T23:48:30.196Z,18.01
2022-09-06T23:50:57.043Z,18.00
2022-09-06T23:53:23.600Z,18.03
2022-09-06T23:55:50.025Z,17.89
2022-09-06T23:58:16.430Z,17.96
